Terminal Aerodrome Forecast
Issued by NWS

Home | Current Version | Previous Version | Graphics & Text | Print | Product List | Glossary On
Versions: 1 2 3 4 5 6 7 8 9 10 11 12 13 14 15 16 17 18 19 20 21 22 23 24 25 26 27 28 29
000
FTUS43 KLSX 272340
TAFSUS
TAF
KSUS 272340Z 2800/2824 33007KT P6SM OVC015
     FM280700 34006KT 5SM BR OVC010
     FM281100 35006KT 4SM BR OVC005
     FM281400 01006KT 5SM BR OVC008
     FM281700 02006KT P6SM BKN015
     FM282100 03006KT P6SM BKN035=

USA.gov is the U.S. government's official web portal to all federal, state and local government web resources and services.